createdAt,value
2023-03-26T00:02:05.020Z,7.00
2023-03-26T00:04:34.395Z,7.00
2023-03-26T00:07:03.260Z,7.00
2023-03-26T00:09:32.738Z,7.00
2023-03-26T00:12:00.881Z,7.00
2023-03-26T00:14:29.974Z,7.00
2023-03-26T00:16:58.183Z,7.00
2023-03-26T00:19:27.792Z,7.00
2023-03-26T00:21:57.625Z,7.00
2023-03-26T00:24:29.885Z,7.00
2023-03-26T00:26:59.676Z,7.00
2023-03-26T00:29:28.832Z,7.00
2023-03-26T00:31:56.942Z,7.00
2023-03-26T00:34:25.071Z,7.00
2023-03-26T00:36:55.262Z,7.00
2023-03-26T00:39:24.032Z,7.00
2023-03-26T00:41:54.409Z,7.10
2023-03-26T00:44:24.432Z,7.10
2023-03-26T00:46:52.626Z,7.10
2023-03-26T00:49:20.731Z,7.10
2023-03-26T00:51:48.799Z,7.10
2023-03-26T00:54:17.375Z,7.10
2023-03-26T00:56:45.571Z,7.10
2023-03-26T00:59:13.689Z,7.10
2023-03-26T01:01:44.751Z,7.00
2023-03-26T01:04:27.496Z,7.00
2023-03-26T01:06:58.500Z,7.00
2023-03-26T01:09:35.242Z,7.00
2023-03-26T01:12:06.677Z,7.10
2023-03-26T01:14:34.967Z,7.00
2023-03-26T01:17:07.133Z,7.00
2023-03-26T01:19:40.683Z,7.00
2023-03-26T01:22:12.121Z,7.00
2023-03-26T01:24:42.157Z,6.90
2023-03-26T01:27:19.922Z,6.90
2023-03-26T01:29:54.329Z,6.90
2023-03-26T01:32:38.045Z,6.90
2023-03-26T01:35:20.064Z,6.90
2023-03-26T01:37:58.860Z,6.90
2023-03-26T01:40:38.641Z,6.90
2023-03-26T01:43:23.498Z,6.90
2023-03-26T01:45:53.455Z,7.00
2023-03-26T01:48:21.764Z,7.00
2023-03-26T01:50:53.592Z,7.10
2023-03-26T01:53:21.778Z,7.10
2023-03-26T01:56:02.307Z,7.00
2023-03-26T01:58:36.910Z,7.10
2023-03-26T02:01:17.287Z,7.10
2023-03-26T02:03:51.687Z,7.10
2023-03-26T02:06:26.338Z,7.10
2023-03-26T02:08:59.476Z,7.20
2023-03-26T02:11:35.543Z,7.20
2023-03-26T02:14:05.963Z,7.20
2023-03-26T02:16:34.337Z,7.30
2023-03-26T02:19:04.358Z,7.20
2023-03-26T02:21:34.009Z,7.30
2023-03-26T02:24:04.057Z,7.20
2023-03-26T02:26:35.657Z,7.20
2023-03-26T02:29:04.162Z,7.20
2023-03-26T02:31:32.794Z,7.20
2023-03-26T02:34:00.933Z,7.10
2023-03-26T02:36:29.272Z,7.10
2023-03-26T02:39:00.222Z,7.10
2023-03-26T02:41:28.278Z,7.10
2023-03-26T02:43:57.682Z,7.00
2023-03-26T02:46:25.849Z,7.00
2023-03-26T02:48:54.660Z,7.00
2023-03-26T02:51:22.761Z,7.00
2023-03-26T02:53:51.180Z,7.00
2023-03-26T02:56:19.239Z,7.00
2023-03-26T02:58:48.362Z,7.00
2023-03-26T03:01:18.456Z,7.00
2023-03-26T03:03:48.446Z,7.00
2023-03-26T03:06:18.801Z,6.90
2023-03-26T03:08:47.339Z,6.90
2023-03-26T03:11:17.225Z,6.90
2023-03-26T03:13:46.355Z,7.00
2023-03-26T03:16:15.386Z,7.00
2023-03-26T03:18:44.882Z,7.00
2023-03-26T03:21:12.988Z,7.00
2023-03-26T03:23:41.115Z,6.90
2023-03-26T03:26:15.623Z,6.90
2023-03-26T03:28:45.019Z,7.00
2023-03-26T03:31:13.151Z,6.90
2023-03-26T03:33:43.039Z,6.90
2023-03-26T03:36:19.744Z,6.80
2023-03-26T03:38:48.953Z,6.80
2023-03-26T03:41:18.473Z,6.80
2023-03-26T03:43:46.472Z,6.70
2023-03-26T03:46:14.750Z,6.70
2023-03-26T03:48:48.126Z,6.60
2023-03-26T03:51:18.233Z,6.60
2023-03-26T03:53:47.236Z,6.60
2023-03-26T03:56:18.889Z,6.50
2023-03-26T03:58:47.379Z,6.50
2023-03-26T04:01:16.802Z,6.60
2023-03-26T04:03:46.514Z,6.50
2023-03-26T04:06:18.941Z,6.50
2023-03-26T04:08:48.666Z,6.40
2023-03-26T04:11:16.614Z,6.40
2023-03-26T04:13:44.917Z,6.40
2023-03-26T04:16:13.043Z,6.40
2023-03-26T04:18:41.263Z,6.30
2023-03-26T04:21:09.375Z,6.20
2023-03-26T04:23:37.428Z,6.10
2023-03-26T04:26:10.478Z,6.10
2023-03-26T04:28:46.346Z,6.20
2023-03-26T04:31:17.820Z,6.20
2023-03-26T04:33:47.925Z,6.20
2023-03-26T04:36:17.532Z,6.20
2023-03-26T04:38:46.528Z,6.20
2023-03-26T04:41:17.131Z,6.20
2023-03-26T04:43:50.485Z,6.30
2023-03-26T04:46:21.680Z,6.30
2023-03-26T04:48:49.949Z,6.30
2023-03-26T04:51:19.614Z,6.40
2023-03-26T04:53:52.594Z,6.50
2023-03-26T04:56:31.737Z,6.50
2023-03-26T04:59:02.665Z,6.50
2023-03-26T05:01:30.954Z,6.50
2023-03-26T05:03:59.757Z,6.50
2023-03-26T05:06:30.365Z,6.50
2023-03-26T05:08:58.544Z,6.50
2023-03-26T05:11:28.044Z,6.40
2023-03-26T05:13:56.981Z,6.50
2023-03-26T05:16:25.901Z,6.50
2023-03-26T05:18:54.096Z,6.50
2023-03-26T05:21:22.392Z,6.60
2023-03-26T05:23:50.956Z,6.60
2023-03-26T05:26:19.176Z,6.70
2023-03-26T05:28:48.672Z,6.70
2023-03-26T05:31:21.161Z,6.70
2023-03-26T05:33:49.691Z,6.70
2023-03-26T05:36:19.142Z,6.70
2023-03-26T05:38:49.614Z,6.70
2023-03-26T05:41:18.777Z,6.70
2023-03-26T05:43:48.980Z,6.70
2023-03-26T05:46:18.053Z,6.70
2023-03-26T05:48:46.611Z,6.80
2023-03-26T05:51:16.068Z,6.80
2023-03-26T05:53:44.291Z,6.90
2023-03-26T05:56:12.625Z,6.90
2023-03-26T05:58:42.017Z,6.90
2023-03-26T06:01:17.017Z,6.90
2023-03-26T06:03:46.858Z,7.00
2023-03-26T06:06:17.565Z,7.10
2023-03-26T06:08:46.835Z,7.10
2023-03-26T06:11:14.882Z,7.20
2023-03-26T06:13:43.562Z,7.30
2023-03-26T06:16:26.815Z,7.30
2023-03-26T06:18:57.233Z,7.40
2023-03-26T06:21:26.255Z,7.50
2023-03-26T06:23:54.542Z,7.60
2023-03-26T06:26:22.688Z,7.70
2023-03-26T06:28:51.030Z,7.70
2023-03-26T06:31:20.762Z,8.00
2023-03-26T06:33:48.963Z,8.10
2023-03-26T06:36:17.075Z,8.20
2023-03-26T06:38:45.203Z,8.30
2023-03-26T06:41:13.768Z,8.30
2023-03-26T06:43:41.843Z,8.50
2023-03-26T06:46:10.817Z,8.60
2023-03-26T06:48:42.002Z,8.70
2023-03-26T06:51:10.610Z,8.80
2023-03-26T06:53:38.711Z,8.80
2023-03-26T06:56:09.167Z,8.80
2023-03-26T06:58:37.574Z,8.90
2023-03-26T07:01:05.963Z,9.00
2023-03-26T07:03:34.238Z,9.10
2023-03-26T07:06:03.884Z,9.10
2023-03-26T07:08:32.130Z,9.10
2023-03-26T07:11:00.226Z,9.30
2023-03-26T07:13:28.326Z,9.40
2023-03-26T07:15:56.428Z,9.50
2023-03-26T07:18:24.697Z,9.60
2023-03-26T07:20:53.524Z,9.70
2023-03-26T07:23:23.757Z,9.60
2023-03-26T07:25:52.612Z,9.80
2023-03-26T07:28:27.100Z,9.90
2023-03-26T07:31:04.406Z,9.90
2023-03-26T07:33:38.355Z,10.00
2023-03-26T07:36:21.797Z,10.00
2023-03-26T07:39:05.870Z,10.20
2023-03-26T07:41:41.509Z,10.20
2023-03-26T07:44:30.833Z,10.50
2023-03-26T07:47:01.685Z,10.60
2023-03-26T07:49:30.245Z,10.40
2023-03-26T07:51:58.985Z,10.30
2023-03-26T07:54:28.951Z,10.50
2023-03-26T07:57:00.666Z,10.70
2023-03-26T07:59:35.511Z,10.80
2023-03-26T08:02:23.884Z,11.10
2023-03-26T08:05:10.441Z,11.40
2023-03-26T08:07:52.754Z,11.60
2023-03-26T08:10:27.232Z,11.70
2023-03-26T08:13:03.229Z,11.70
2023-03-26T08:15:37.978Z,11.80
2023-03-26T08:18:27.419Z,12.00
2023-03-26T08:20:58.309Z,11.90
2023-03-26T08:23:33.027Z,11.70
2023-03-26T08:26:12.761Z,11.50
2023-03-26T08:28:52.630Z,11.60
2023-03-26T08:31:29.745Z,11.60
2023-03-26T08:33:57.814Z,11.40
2023-03-26T08:36:26.816Z,11.40
2023-03-26T08:38:55.331Z,11.30
2023-03-26T08:42:03.088Z,11.30
2023-03-26T08:45:05.980Z,11.60
2023-03-26T08:48:25.974Z,12.00
2023-03-26T08:51:27.865Z,12.00
2023-03-26T08:54:37.282Z,11.90
2023-03-26T08:57:15.929Z,11.80
2023-03-26T09:00:15.519Z,11.70
2023-03-26T09:03:09.511Z,11.60
2023-03-26T09:05:54.750Z,11.60
2023-03-26T09:08:59.073Z,11.80
2023-03-26T09:11:53.000Z,11.80
2023-03-26T09:14:53.938Z,11.70
2023-03-26T09:17:58.129Z,12.00
2023-03-26T09:21:02.925Z,12.30
2023-03-26T09:24:17.052Z,12.20
2023-03-26T09:26:51.451Z,12.60
2023-03-26T09:30:01.650Z,12.60
2023-03-26T09:33:13.074Z,13.00
2023-03-26T09:36:17.215Z,12.80
2023-03-26T09:38:46.791Z,12.80
2023-03-26T09:41:18.312Z,12.80
2023-03-26T09:44:25.887Z,12.90
2023-03-26T09:47:11.097Z,12.90
2023-03-26T09:49:47.084Z,12.90
2023-03-26T09:52:32.425Z,13.30
2023-03-26T09:55:34.594Z,13.40
2023-03-26T09:58:17.930Z,13.50
2023-03-26T10:00:52.594Z,13.70
2023-03-26T10:03:32.116Z,13.70
2023-03-26T10:06:15.145Z,13.80
2023-03-26T10:09:13.883Z,13.80
2023-03-26T10:11:59.541Z,13.90
2023-03-26T10:14:36.023Z,13.60
2023-03-26T10:17:16.743Z,13.60
2023-03-26T10:19:58.172Z,13.40
2023-03-26T10:22:44.565Z,13.20
2023-03-26T10:25:27.036Z,13.30
2023-03-26T10:28:05.722Z,13.30
2023-03-26T10:30:49.956Z,13.10
2023-03-26T10:33:30.512Z,13.00
2023-03-26T10:36:20.182Z,13.00
2023-03-26T10:39:09.199Z,13.10
2023-03-26T10:41:46.005Z,13.20
2023-03-26T10:44:29.747Z,13.30
2023-03-26T10:47:23.819Z,13.40
2023-03-26T10:50:27.361Z,13.50
2023-03-26T10:52:58.372Z,13.50
2023-03-26T10:55:32.838Z,13.50
2023-03-26T10:58:06.852Z,13.20
2023-03-26T11:00:39.919Z,13.20
2023-03-26T11:03:23.832Z,13.00
2023-03-26T11:06:00.138Z,12.90
2023-03-26T11:08:35.427Z,12.90
2023-03-26T11:11:15.524Z,12.90
2023-03-26T11:13:54.536Z,12.90
2023-03-26T11:16:31.722Z,12.80
2023-03-26T11:19:05.588Z,12.80
2023-03-26T11:21:39.853Z,12.70
2023-03-26T11:24:40.765Z,12.60
2023-03-26T11:27:19.977Z,12.40
2023-03-26T11:29:56.544Z,12.40
2023-03-26T11:32:28.043Z,12.40
2023-03-26T11:35:02.323Z,12.30
2023-03-26T11:37:34.209Z,12.40
2023-03-26T11:40:06.413Z,12.30
2023-03-26T11:42:36.040Z,12.40
2023-03-26T11:45:06.512Z,12.20
2023-03-26T11:47:39.599Z,12.30
2023-03-26T11:50:16.359Z,12.20
2023-03-26T11:52:46.851Z,12.20
2023-03-26T11:55:15.822Z,12.20
2023-03-26T11:57:51.315Z,12.20
2023-03-26T12:00:23.040Z,12.10
2023-03-26T12:02:51.873Z,12.00
2023-03-26T12:05:22.099Z,11.90
2023-03-26T12:07:55.846Z,11.90
2023-03-26T12:10:37.712Z,11.80
2023-03-26T12:13:27.777Z,11.80
2023-03-26T12:15:59.445Z,11.90
2023-03-26T12:18:28.830Z,11.90
2023-03-26T12:21:09.322Z,11.80
2023-03-26T12:23:51.269Z,11.70
2023-03-26T12:26:21.076Z,11.60
2023-03-26T12:28:52.202Z,11.60
2023-03-26T12:31:20.821Z,11.60
2023-03-26T12:34:07.514Z,11.50
2023-03-26T12:36:36.517Z,11.40
2023-03-26T12:40:07.726Z,11.40
2023-03-26T12:44:44.732Z,11.30
2023-03-26T12:45:17.385Z,11.20
2023-03-26T12:47:57.449Z,11.20
2023-03-26T12:50:37.891Z,11.10
2023-03-26T12:53:42.921Z,11.10
2023-03-26T12:56:21.840Z,10.90
2023-03-26T12:59:12.980Z,10.80
2023-03-26T13:01:53.647Z,10.70
2023-03-26T13:05:05.056Z,10.50
2023-03-26T13:07:52.669Z,10.20
2023-03-26T13:10:46.008Z,10.20
2023-03-26T13:13:44.137Z,10.10
2023-03-26T13:16:19.631Z,10.00
2023-03-26T13:18:55.936Z,10.00
2023-03-26T13:21:34.618Z,9.90
2023-03-26T13:24:11.504Z,9.80
2023-03-26T13:26:54.481Z,9.60
2023-03-26T13:29:31.075Z,9.70
2023-03-26T13:32:08.386Z,9.70
2023-03-26T13:34:55.493Z,9.60
2023-03-26T13:37:28.882Z,9.50
2023-03-26T13:40:14.108Z,9.50
2023-03-26T13:42:56.539Z,9.50
2023-03-26T13:45:39.299Z,9.40
2023-03-26T13:48:15.679Z,9.50
2023-03-26T13:50:51.915Z,9.50
2023-03-26T13:53:26.009Z,9.40
2023-03-26T13:55:57.700Z,9.50
2023-03-26T13:58:34.309Z,9.50
2023-03-26T14:01:07.534Z,9.60
2023-03-26T14:03:48.097Z,9.60
2023-03-26T14:06:31.931Z,9.60
2023-03-26T14:09:05.016Z,9.70
2023-03-26T14:11:49.103Z,9.70
2023-03-26T14:14:21.960Z,9.70
2023-03-26T14:16:54.617Z,9.60
2023-03-26T14:20:09.729Z,9.60
2023-03-26T14:22:54.955Z,9.60
2023-03-26T14:25:33.757Z,9.60
2023-03-26T14:28:22.663Z,9.60
2023-03-26T14:31:03.925Z,9.50
2023-03-26T14:33:58.396Z,9.60
2023-03-26T14:36:49.225Z,9.50
2023-03-26T14:39:38.568Z,9.60
2023-03-26T14:42:16.160Z,9.60
2023-03-26T14:45:09.163Z,9.60
2023-03-26T14:47:42.729Z,9.60
2023-03-26T14:50:46.697Z,9.60
2023-03-26T14:53:29.626Z,9.60
2023-03-26T14:56:34.457Z,9.60
2023-03-26T14:59:49.220Z,9.60
2023-03-26T15:03:07.417Z,9.60
2023-03-26T15:06:07.606Z,9.60
2023-03-26T15:09:28.426Z,9.70
2023-03-26T15:12:12.420Z,9.90
2023-03-26T15:15:26.352Z,10.00
2023-03-26T15:18:21.055Z,10.00
2023-03-26T15:21:20.145Z,10.10
2023-03-26T15:24:21.438Z,10.10
2023-03-26T15:27:32.032Z,10.20
2023-03-26T15:30:36.161Z,10.20
2023-03-26T15:33:39.956Z,10.00
2023-03-26T15:36:44.652Z,9.90
2023-03-26T15:39:59.736Z,9.80
2023-03-26T15:42:38.232Z,9.80
2023-03-26T15:45:33.329Z,9.80
2023-03-26T15:48:30.004Z,9.70
2023-03-26T15:51:15.313Z,9.60
2023-03-26T15:53:51.140Z,9.50
2023-03-26T15:56:29.493Z,9.50
2023-03-26T15:59:06.277Z,9.40
2023-03-26T16:01:47.932Z,9.40
2023-03-26T16:04:29.564Z,9.30
2023-03-26T16:07:03.678Z,9.30
2023-03-26T16:09:56.280Z,9.20
2023-03-26T16:12:34.908Z,9.20
2023-03-26T16:15:31.906Z,9.30
2023-03-26T16:18:33.926Z,9.20
2023-03-26T16:21:36.347Z,9.20
2023-03-26T16:24:23.323Z,9.10
2023-03-26T16:27:08.022Z,9.10
2023-03-26T16:30:20.225Z,9.10
2023-03-26T16:32:56.081Z,9.10
2023-03-26T16:35:42.646Z,9.10
2023-03-26T16:38:16.376Z,9.10
2023-03-26T16:41:01.856Z,9.00
2023-03-26T16:43:53.943Z,9.00
2023-03-26T16:46:38.061Z,8.90
2023-03-26T16:49:20.419Z,8.90
2023-03-26T16:52:12.737Z,8.80
2023-03-26T16:54:46.986Z,8.70
2023-03-26T16:57:27.087Z,8.70
2023-03-26T17:00:29.704Z,8.70
2023-03-26T17:03:13.059Z,8.60
2023-03-26T17:06:05.958Z,8.60
2023-03-26T17:08:44.053Z,8.50
2023-03-26T17:11:23.171Z,8.50
2023-03-26T17:14:03.598Z,8.50
2023-03-26T17:16:35.923Z,8.40
2023-03-26T17:19:13.394Z,8.40
2023-03-26T17:21:51.023Z,8.30
2023-03-26T17:24:28.693Z,8.30
2023-03-26T17:27:02.627Z,8.30
2023-03-26T17:29:43.193Z,8.30
2023-03-26T17:32:14.802Z,8.20
2023-03-26T17:34:56.570Z,8.20
2023-03-26T17:37:43.407Z,8.10
2023-03-26T17:40:46.456Z,8.10
2023-03-26T17:43:43.654Z,8.10
2023-03-26T17:46:28.679Z,8.20
2023-03-26T17:49:01.982Z,8.10
2023-03-26T17:51:41.079Z,8.10
2023-03-26T17:54:19.340Z,8.10
2023-03-26T17:56:48.732Z,8.00
2023-03-26T17:59:23.278Z,7.90
2023-03-26T18:01:55.437Z,7.90
2023-03-26T18:04:31.145Z,7.80
2023-03-26T18:07:20.697Z,7.80
2023-03-26T18:10:05.579Z,7.80
2023-03-26T18:12:50.848Z,7.80
2023-03-26T18:15:34.888Z,7.80
2023-03-26T18:18:12.483Z,7.80
2023-03-26T18:20:42.642Z,7.70
2023-03-26T18:23:12.466Z,7.70
2023-03-26T18:25:42.165Z,7.70
2023-03-26T18:28:15.643Z,7.60
2023-03-26T18:30:48.496Z,7.60
2023-03-26T18:33:17.152Z,7.50
2023-03-26T18:35:47.389Z,7.40
2023-03-26T18:38:35.036Z,7.40
2023-03-26T18:41:07.921Z,7.30
2023-03-26T18:43:44.502Z,7.20
2023-03-26T18:46:14.603Z,7.20
2023-03-26T18:48:43.082Z,7.20
2023-03-26T18:51:11.882Z,7.10
2023-03-26T18:53:44.589Z,7.10
2023-03-26T18:56:30.144Z,7.10
2023-03-26T18:59:00.336Z,7.00
2023-03-26T19:01:31.593Z,7.00
2023-03-26T19:04:03.669Z,6.90
2023-03-26T19:06:36.051Z,6.90
2023-03-26T19:09:16.401Z,6.80
2023-03-26T19:11:57.062Z,6.80
2023-03-26T19:14:27.039Z,6.80
2023-03-26T19:16:59.036Z,6.80
2023-03-26T19:19:31.441Z,6.80
2023-03-26T19:22:00.053Z,6.80
2023-03-26T19:24:28.642Z,6.90
2023-03-26T19:26:58.193Z,6.90
2023-03-26T19:29:27.159Z,6.90
2023-03-26T19:32:02.820Z,7.10
2023-03-26T19:34:35.034Z,7.10
2023-03-26T19:37:05.290Z,7.10
2023-03-26T19:39:40.526Z,7.00
2023-03-26T19:42:15.901Z,7.00
2023-03-26T19:44:44.641Z,7.00
2023-03-26T19:47:18.486Z,7.00
2023-03-26T19:49:55.964Z,7.00
2023-03-26T19:52:26.668Z,7.00
2023-03-26T19:54:59.843Z,6.90
2023-03-26T19:57:32.118Z,6.90
2023-03-26T20:00:00.703Z,6.90
2023-03-26T20:02:29.168Z,7.00
2023-03-26T20:04:57.304Z,7.00
2023-03-26T20:07:35.267Z,7.00
2023-03-26T20:10:06.432Z,7.00
2023-03-26T20:12:36.068Z,7.00
2023-03-26T20:15:19.404Z,7.00
2023-03-26T20:17:50.177Z,7.00
2023-03-26T20:20:18.554Z,6.90
2023-03-26T20:22:47.267Z,6.80
2023-03-26T20:25:20.422Z,6.80
2023-03-26T20:27:52.956Z,6.90
2023-03-26T20:30:36.425Z,6.80
2023-03-26T20:33:12.144Z,6.80
2023-03-26T20:35:42.707Z,6.80
2023-03-26T20:38:11.175Z,6.80
2023-03-26T20:40:40.136Z,6.70
2023-03-26T20:43:14.194Z,6.70
2023-03-26T20:45:42.785Z,6.70
2023-03-26T20:48:11.814Z,6.60
2023-03-26T20:50:50.402Z,6.60
2023-03-26T20:53:20.340Z,6.50
2023-03-26T20:55:51.018Z,6.40
2023-03-26T20:58:31.162Z,6.40
2023-03-26T21:01:02.383Z,6.30
2023-03-26T21:03:30.717Z,6.30
2023-03-26T21:06:01.221Z,6.20
2023-03-26T21:08:35.111Z,6.10
2023-03-26T21:11:04.805Z,6.10
2023-03-26T21:13:39.996Z,6.00
2023-03-26T21:16:12.044Z,6.00
2023-03-26T21:18:41.825Z,5.90
2023-03-26T21:21:26.238Z,5.80
2023-03-26T21:24:00.249Z,5.80
2023-03-26T21:26:33.996Z,5.80
2023-03-26T21:29:12.000Z,5.80
2023-03-26T21:31:40.797Z,5.80
2023-03-26T21:34:09.621Z,5.80
2023-03-26T21:36:38.390Z,5.90
2023-03-26T21:39:07.375Z,5.90
2023-03-26T21:41:43.940Z,5.80
2023-03-26T21:44:14.285Z,5.80
2023-03-26T21:46:43.697Z,5.80
2023-03-26T21:49:12.391Z,5.80
2023-03-26T21:51:41.090Z,5.70
2023-03-26T21:54:23.182Z,5.70
2023-03-26T21:57:02.590Z,5.60
2023-03-26T21:59:39.973Z,5.60
2023-03-26T22:02:14.176Z,5.60
2023-03-26T22:04:47.299Z,5.50
2023-03-26T22:07:18.758Z,5.50
2023-03-26T22:09:47.474Z,5.50
2023-03-26T22:12:16.590Z,5.50
2023-03-26T22:14:46.037Z,5.60
2023-03-26T22:17:14.290Z,5.60
2023-03-26T22:19:42.451Z,5.60
2023-03-26T22:22:10.919Z,5.60
2023-03-26T22:24:39.020Z,5.60
2023-03-26T22:27:07.752Z,5.60
2023-03-26T22:29:35.821Z,5.60
2023-03-26T22:32:05.430Z,5.60
2023-03-26T22:34:34.946Z,5.60
2023-03-26T22:37:02.877Z,5.60
2023-03-26T22:39:31.254Z,5.50
2023-03-26T22:42:01.391Z,5.50
2023-03-26T22:44:29.453Z,5.40
2023-03-26T22:46:57.495Z,5.40
2023-03-26T22:49:27.464Z,5.40
2023-03-26T22:51:55.699Z,5.30
2023-03-26T22:54:24.038Z,5.30
2023-03-26T22:56:52.958Z,5.30
2023-03-26T22:59:21.060Z,5.30
2023-03-26T23:01:49.286Z,5.20
2023-03-26T23:04:30.912Z,5.20
2023-03-26T23:07:01.628Z,5.20
2023-03-26T23:09:29.616Z,5.20
2023-03-26T23:11:57.699Z,5.20
2023-03-26T23:14:25.993Z,5.20
2023-03-26T23:16:54.052Z,5.20
2023-03-26T23:19:22.164Z,5.20
2023-03-26T23:21:50.218Z,5.20
2023-03-26T23:24:19.749Z,5.20
2023-03-26T23:26:51.156Z,5.10
2023-03-26T23:29:19.637Z,5.10
2023-03-26T23:31:48.065Z,5.00
2023-03-26T23:34:16.984Z,5.00
2023-03-26T23:36:45.554Z,5.00
2023-03-26T23:39:13.838Z,5.00
2023-03-26T23:41:43.794Z,5.00
2023-03-26T23:44:14.440Z,5.00
2023-03-26T23:46:42.762Z,5.00
2023-03-26T23:49:12.076Z,4.90
2023-03-26T23:51:40.223Z,5.00
2023-03-26T23:54:08.836Z,4.90
2023-03-26T23:56:37.033Z,5.00
2023-03-26T23:59:06.484Z,4.90
